sensor_id;sensor_type;location;lat;lon;timestamp;P1;durP1;ratioP1;P2;durP2;ratioP2
21814;SDS011;11069;48.988;8.450;2023-04-03T00:01:16;2.80;;;2.50;;
21814;SDS011;11069;48.988;8.450;2023-04-03T00:03:42;4.30;;;2.45;;
21814;SDS011;11069;48.988;8.450;2023-04-03T00:06:07;3.40;;;2.40;;
21814;SDS011;11069;48.988;8.450;2023-04-03T00:08:35;4.22;;;2.65;;
21814;SDS011;11069;48.988;8.450;2023-04-03T00:11:01;3.30;;;2.58;;
21814;SDS011;11069;48.988;8.450;2023-04-03T00:13:27;2.72;;;2.30;;
21814;SDS011;11069;48.988;8.450;2023-04-03T00:15:56;2.60;;;2.35;;
21814;SDS011;11069;48.988;8.450;2023-04-03T00:18:22;3.40;;;2.58;;
21814;SDS011;11069;48.988;8.450;2023-04-03T00:20:48;3.10;;;2.35;;
21814;SDS011;11069;48.988;8.450;2023-04-03T00:23:14;4.47;;;2.53;;
21814;SDS011;11069;48.988;8.450;2023-04-03T00:25:40;5.93;;;2.40;;
21814;SDS011;11069;48.988;8.450;2023-04-03T00:28:05;2.63;;;2.28;;
21814;SDS011;11069;48.988;8.450;2023-04-03T00:30:31;3.58;;;2.50;;
21814;SDS011;11069;48.988;8.450;2023-04-03T00:32:57;3.03;;;2.25;;
21814;SDS011;11069;48.988;8.450;2023-04-03T00:35:24;2.60;;;2.20;;
21814;SDS011;11069;48.988;8.450;2023-04-03T00:37:53;3.92;;;2.22;;
21814;SDS011;11069;48.988;8.450;2023-04-03T00:40:20;3.30;;;2.40;;
21814;SDS011;11069;48.988;8.450;2023-04-03T00:42:48;3.63;;;2.17;;
21814;SDS011;11069;48.988;8.450;2023-04-03T00:47:48;2.38;;;2.10;;
21814;SDS011;11069;48.988;8.450;2023-04-03T00:50:14;3.83;;;2.42;;
21814;SDS011;11069;48.988;8.450;2023-04-03T00:52:40;2.63;;;2.05;;
21814;SDS011;11069;48.988;8.450;2023-04-03T00:55:07;4.80;;;2.40;;
21814;SDS011;11069;48.988;8.450;2023-04-03T00:57:34;2.28;;;1.90;;
21814;SDS011;11069;48.988;8.450;2023-04-03T01:00:08;3.08;;;2.20;;
21814;SDS011;11069;48.988;8.450;2023-04-03T01:02:37;3.60;;;2.35;;
21814;SDS011;11069;48.988;8.450;2023-04-03T01:05:05;3.25;;;2.30;;
21814;SDS011;11069;48.988;8.450;2023-04-03T01:07:32;4.05;;;2.42;;
21814;SDS011;11069;48.988;8.450;2023-04-03T01:10:00;3.38;;;2.17;;
21814;SDS011;11069;48.988;8.450;2023-04-03T01:12:29;4.47;;;2.28;;
21814;SDS011;11069;48.988;8.450;2023-04-03T01:15:04;2.78;;;2.10;;
21814;SDS011;11069;48.988;8.450;2023-04-03T01:20:22;4.60;;;2.45;;
21814;SDS011;11069;48.988;8.450;2023-04-03T01:28:10;2.22;;;2.03;;
21814;SDS011;11069;48.988;8.450;2023-04-03T01:30:53;4.75;;;2.53;;
21814;SDS011;11069;48.988;8.450;2023-04-03T01:33:21;3.25;;;2.10;;
21814;SDS011;11069;48.988;8.450;2023-04-03T01:35:47;2.85;;;2.10;;
21814;SDS011;11069;48.988;8.450;2023-04-03T01:38:12;4.40;;;2.63;;
21814;SDS011;11069;48.988;8.450;2023-04-03T01:40:38;2.80;;;2.15;;
21814;SDS011;11069;48.988;8.450;2023-04-03T01:43:04;2.20;;;2.00;;
21814;SDS011;11069;48.988;8.450;2023-04-03T01:45:30;3.33;;;2.15;;
21814;SDS011;11069;48.988;8.450;2023-04-03T01:47:55;2.75;;;2.20;;
21814;SDS011;11069;48.988;8.450;2023-04-03T01:50:21;3.08;;;2.33;;
21814;SDS011;11069;48.988;8.450;2023-04-03T01:52:47;3.60;;;2.30;;
21814;SDS011;11069;48.988;8.450;2023-04-03T01:55:12;4.10;;;2.20;;
21814;SDS011;11069;48.988;8.450;2023-04-03T01:57:38;3.47;;;2.50;;
21814;SDS011;11069;48.988;8.450;2023-04-03T02:00:06;3.63;;;2.28;;
21814;SDS011;11069;48.988;8.450;2023-04-03T02:02:32;3.72;;;2.15;;
21814;SDS011;11069;48.988;8.450;2023-04-03T02:04:58;3.72;;;2.55;;
21814;SDS011;11069;48.988;8.450;2023-04-03T02:07:24;4.47;;;2.10;;
21814;SDS011;11069;48.988;8.450;2023-04-03T02:09:49;2.55;;;2.00;;
21814;SDS011;11069;48.988;8.450;2023-04-03T02:12:15;3.63;;;2.45;;
21814;SDS011;11069;48.988;8.450;2023-04-03T02:14:40;3.78;;;2.28;;
21814;SDS011;11069;48.988;8.450;2023-04-03T02:17:06;3.28;;;2.17;;
21814;SDS011;11069;48.988;8.450;2023-04-03T02:19:34;2.80;;;2.30;;
21814;SDS011;11069;48.988;8.450;2023-04-03T02:22:00;2.53;;;2.13;;
21814;SDS011;11069;48.988;8.450;2023-04-03T02:24:27;3.03;;;2.33;;
21814;SDS011;11069;48.988;8.450;2023-04-03T02:26:52;3.25;;;2.25;;
21814;SDS011;11069;48.988;8.450;2023-04-03T02:29:18;3.00;;;2.30;;
21814;SDS011;11069;48.988;8.450;2023-04-03T02:31:44;4.53;;;2.38;;
21814;SDS011;11069;48.988;8.450;2023-04-03T02:34:10;3.33;;;2.47;;
21814;SDS011;11069;48.988;8.450;2023-04-03T02:36:35;3.92;;;2.50;;
21814;SDS011;11069;48.988;8.450;2023-04-03T02:39:01;3.92;;;2.45;;
21814;SDS011;11069;48.988;8.450;2023-04-03T02:41:27;3.78;;;2.40;;
21814;SDS011;11069;48.988;8.450;2023-04-03T02:43:59;3.35;;;2.50;;
21814;SDS011;11069;48.988;8.450;2023-04-03T02:46:25;2.40;;;2.08;;
21814;SDS011;11069;48.988;8.450;2023-04-03T02:48:51;3.25;;;2.20;;
21814;SDS011;11069;48.988;8.450;2023-04-03T02:51:16;3.83;;;2.20;;
21814;SDS011;11069;48.988;8.450;2023-04-03T02:53:42;4.15;;;2.42;;
21814;SDS011;11069;48.988;8.450;2023-04-03T02:56:08;2.65;;;2.35;;
21814;SDS011;11069;48.988;8.450;2023-04-03T02:58:33;3.30;;;2.35;;
21814;SDS011;11069;48.988;8.450;2023-04-03T03:00:59;5.25;;;2.60;;
21814;SDS011;11069;48.988;8.450;2023-04-03T03:03:25;2.88;;;2.42;;
21814;SDS011;11069;48.988;8.450;2023-04-03T03:06:00;3.65;;;2.40;;
21814;SDS011;11069;48.988;8.450;2023-04-03T03:08:26;3.97;;;2.40;;
21814;SDS011;11069;48.988;8.450;2023-04-03T03:10:52;3.45;;;2.35;;
21814;SDS011;11069;48.988;8.450;2023-04-03T03:13:17;3.47;;;2.53;;
21814;SDS011;11069;48.988;8.450;2023-04-03T03:15:43;5.35;;;2.53;;
21814;SDS011;11069;48.988;8.450;2023-04-03T03:18:08;4.38;;;2.60;;
21814;SDS011;11069;48.988;8.450;2023-04-03T03:20:34;3.63;;;2.53;;
21814;SDS011;11069;48.988;8.450;2023-04-03T03:22:59;3.65;;;2.50;;
21814;SDS011;11069;48.988;8.450;2023-04-03T03:25:25;4.30;;;2.70;;
21814;SDS011;11069;48.988;8.450;2023-04-03T03:27:51;3.08;;;2.30;;
21814;SDS011;11069;48.988;8.450;2023-04-03T03:30:16;2.88;;;2.20;;
21814;SDS011;11069;48.988;8.450;2023-04-03T03:32:42;3.65;;;2.50;;
21814;SDS011;11069;48.988;8.450;2023-04-03T03:35:07;2.42;;;2.22;;
21814;SDS011;11069;48.988;8.450;2023-04-03T03:37:33;3.83;;;2.38;;
21814;SDS011;11069;48.988;8.450;2023-04-03T03:39:59;4.55;;;2.50;;
21814;SDS011;11069;48.988;8.450;2023-04-03T03:42:25;3.90;;;2.83;;
21814;SDS011;11069;48.988;8.450;2023-04-03T03:44:50;5.85;;;2.80;;
21814;SDS011;11069;48.988;8.450;2023-04-03T03:47:16;3.28;;;2.60;;
21814;SDS011;11069;48.988;8.450;2023-04-03T03:49:42;3.22;;;2.63;;
21814;SDS011;11069;48.988;8.450;2023-04-03T03:52:08;3.50;;;2.65;;
21814;SDS011;11069;48.988;8.450;2023-04-03T03:54:35;3.15;;;2.55;;
21814;SDS011;11069;48.988;8.450;2023-04-03T03:57:01;3.95;;;2.90;;
21814;SDS011;11069;48.988;8.450;2023-04-03T03:59:27;4.25;;;2.63;;
21814;SDS011;11069;48.988;8.450;2023-04-03T04:01:52;3.92;;;2.90;;
21814;SDS011;11069;48.988;8.450;2023-04-03T04:04:18;3.60;;;2.95;;
21814;SDS011;11069;48.988;8.450;2023-04-03T04:06:47;3.80;;;2.90;;
21814;SDS011;11069;48.988;8.450;2023-04-03T04:09:12;3.17;;;2.55;;
21814;SDS011;11069;48.988;8.450;2023-04-03T04:11:38;7.30;;;2.90;;
21814;SDS011;11069;48.988;8.450;2023-04-03T04:14:05;4.75;;;2.83;;
21814;SDS011;11069;48.988;8.450;2023-04-03T04:16:31;3.55;;;2.50;;
21814;SDS011;11069;48.988;8.450;2023-04-03T04:18:57;3.30;;;2.80;;
21814;SDS011;11069;48.988;8.450;2023-04-03T04:21:22;3.47;;;2.53;;
21814;SDS011;11069;48.988;8.450;2023-04-03T04:23:51;5.00;;;3.30;;
21814;SDS011;11069;48.988;8.450;2023-04-03T04:26:17;3.80;;;2.75;;
21814;SDS011;11069;48.988;8.450;2023-04-03T04:28:42;5.05;;;3.30;;
21814;SDS011;11069;48.988;8.450;2023-04-03T04:31:08;4.80;;;3.03;;
21814;SDS011;11069;48.988;8.450;2023-04-03T04:33:34;3.50;;;2.75;;
21814;SDS011;11069;48.988;8.450;2023-04-03T04:35:59;3.13;;;2.83;;
21814;SDS011;11069;48.988;8.450;2023-04-03T04:38:25;3.15;;;2.78;;
21814;SDS011;11069;48.988;8.450;2023-04-03T04:40:50;4.53;;;3.00;;
21814;SDS011;11069;48.988;8.450;2023-04-03T04:43:19;4.68;;;2.70;;
21814;SDS011;11069;48.988;8.450;2023-04-03T04:45:44;5.05;;;3.13;;
21814;SDS011;11069;48.988;8.450;2023-04-03T04:48:10;4.18;;;2.95;;
21814;SDS011;11069;48.988;8.450;2023-04-03T04:50:36;4.60;;;2.70;;
21814;SDS011;11069;48.988;8.450;2023-04-03T04:53:02;2.83;;;2.40;;
21814;SDS011;11069;48.988;8.450;2023-04-03T04:55:29;3.40;;;2.85;;
21814;SDS011;11069;48.988;8.450;2023-04-03T04:57:54;5.40;;;2.95;;
21814;SDS011;11069;48.988;8.450;2023-04-03T05:00:20;4.30;;;3.05;;
21814;SDS011;11069;48.988;8.450;2023-04-03T05:02:46;5.80;;;4.38;;
21814;SDS011;11069;48.988;8.450;2023-04-03T05:05:11;4.40;;;3.47;;
21814;SDS011;11069;48.988;8.450;2023-04-03T05:07:37;3.17;;;2.70;;
21814;SDS011;11069;48.988;8.450;2023-04-03T05:10:03;4.68;;;3.05;;
21814;SDS011;11069;48.988;8.450;2023-04-03T05:12:29;4.05;;;2.80;;
21814;SDS011;11069;48.988;8.450;2023-04-03T05:14:54;6.75;;;3.20;;
21814;SDS011;11069;48.988;8.450;2023-04-03T05:17:20;4.82;;;2.67;;
21814;SDS011;11069;48.988;8.450;2023-04-03T05:19:46;4.72;;;3.10;;
21814;SDS011;11069;48.988;8.450;2023-04-03T05:22:11;4.15;;;3.05;;
21814;SDS011;11069;48.988;8.450;2023-04-03T05:24:37;4.30;;;3.10;;
21814;SDS011;11069;48.988;8.450;2023-04-03T05:27:02;4.32;;;3.00;;
21814;SDS011;11069;48.988;8.450;2023-04-03T05:29:28;5.00;;;3.10;;
21814;SDS011;11069;48.988;8.450;2023-04-03T05:31:54;3.65;;;3.03;;
21814;SDS011;11069;48.988;8.450;2023-04-03T05:34:20;3.95;;;2.65;;
21814;SDS011;11069;48.988;8.450;2023-04-03T05:36:45;3.00;;;2.67;;
21814;SDS011;11069;48.988;8.450;2023-04-03T05:39:11;5.30;;;2.92;;
21814;SDS011;11069;48.988;8.450;2023-04-03T05:41:36;4.65;;;2.80;;
21814;SDS011;11069;48.988;8.450;2023-04-03T05:44:02;4.50;;;2.80;;
21814;SDS011;11069;48.988;8.450;2023-04-03T05:46:28;6.57;;;3.00;;
21814;SDS011;11069;48.988;8.450;2023-04-03T05:48:53;4.25;;;2.90;;
21814;SDS011;11069;48.988;8.450;2023-04-03T05:51:21;4.28;;;2.95;;
21814;SDS011;11069;48.988;8.450;2023-04-03T05:53:52;3.33;;;2.88;;
21814;SDS011;11069;48.988;8.450;2023-04-03T05:58:47;4.80;;;2.70;;
21814;SDS011;11069;48.988;8.450;2023-04-03T06:01:12;3.97;;;2.90;;
21814;SDS011;11069;48.988;8.450;2023-04-03T06:03:38;4.32;;;3.05;;
21814;SDS011;11069;48.988;8.450;2023-04-03T06:06:04;3.20;;;2.70;;
21814;SDS011;11069;48.988;8.450;2023-04-03T06:08:30;3.10;;;2.53;;
21814;SDS011;11069;48.988;8.450;2023-04-03T06:10:56;2.63;;;2.33;;
21814;SDS011;11069;48.988;8.450;2023-04-03T06:13:22;4.45;;;3.08;;
21814;SDS011;11069;48.988;8.450;2023-04-03T06:15:48;3.10;;;2.67;;
21814;SDS011;11069;48.988;8.450;2023-04-03T06:18:14;6.30;;;2.72;;
21814;SDS011;11069;48.988;8.450;2023-04-03T06:20:40;4.55;;;2.78;;
21814;SDS011;11069;48.988;8.450;2023-04-03T06:23:05;3.65;;;2.85;;
21814;SDS011;11069;48.988;8.450;2023-04-03T06:25:31;5.20;;;3.13;;
21814;SDS011;11069;48.988;8.450;2023-04-03T06:27:58;5.88;;;3.95;;
21814;SDS011;11069;48.988;8.450;2023-04-03T06:30:24;5.55;;;3.13;;
21814;SDS011;11069;48.988;8.450;2023-04-03T06:32:50;8.43;;;3.67;;
21814;SDS011;11069;48.988;8.450;2023-04-03T06:35:16;4.88;;;2.97;;
21814;SDS011;11069;48.988;8.450;2023-04-03T06:37:41;3.53;;;2.80;;
21814;SDS011;11069;48.988;8.450;2023-04-03T06:40:09;5.93;;;3.38;;
21814;SDS011;11069;48.988;8.450;2023-04-03T06:42:47;5.30;;;3.20;;
21814;SDS011;11069;48.988;8.450;2023-04-03T06:45:12;3.70;;;3.10;;
21814;SDS011;11069;48.988;8.450;2023-04-03T06:47:38;4.53;;;3.03;;
21814;SDS011;11069;48.988;8.450;2023-04-03T06:50:04;4.95;;;2.97;;
21814;SDS011;11069;48.988;8.450;2023-04-03T06:52:31;4.72;;;2.95;;
21814;SDS011;11069;48.988;8.450;2023-04-03T06:54:57;4.95;;;2.90;;
21814;SDS011;11069;48.988;8.450;2023-04-03T06:57:24;3.47;;;2.50;;
21814;SDS011;11069;48.988;8.450;2023-04-03T06:59:50;3.78;;;2.78;;
21814;SDS011;11069;48.988;8.450;2023-04-03T07:02:16;6.10;;;2.88;;
21814;SDS011;11069;48.988;8.450;2023-04-03T07:04:42;5.57;;;3.50;;
21814;SDS011;11069;48.988;8.450;2023-04-03T07:07:07;6.00;;;3.50;;
21814;SDS011;11069;48.988;8.450;2023-04-03T07:09:33;4.72;;;3.00;;
21814;SDS011;11069;48.988;8.450;2023-04-03T07:11:59;4.50;;;3.20;;
21814;SDS011;11069;48.988;8.450;2023-04-03T07:14:25;4.43;;;3.00;;
21814;SDS011;11069;48.988;8.450;2023-04-03T07:16:51;5.55;;;3.60;;
21814;SDS011;11069;48.988;8.450;2023-04-03T07:19:16;4.45;;;3.08;;
21814;SDS011;11069;48.988;8.450;2023-04-03T07:21:43;4.10;;;3.10;;
21814;SDS011;11069;48.988;8.450;2023-04-03T07:24:09;4.75;;;2.95;;
21814;SDS011;11069;48.988;8.450;2023-04-03T07:26:35;5.00;;;3.05;;
21814;SDS011;11069;48.988;8.450;2023-04-03T07:29:01;4.30;;;3.33;;
21814;SDS011;11069;48.988;8.450;2023-04-03T07:31:26;4.97;;;3.08;;
21814;SDS011;11069;48.988;8.450;2023-04-03T07:33:52;5.55;;;3.20;;
21814;SDS011;11069;48.988;8.450;2023-04-03T07:36:18;5.00;;;3.30;;
21814;SDS011;11069;48.988;8.450;2023-04-03T07:38:46;4.65;;;3.30;;
21814;SDS011;11069;48.988;8.450;2023-04-03T07:41:16;6.72;;;3.40;;
21814;SDS011;11069;48.988;8.450;2023-04-03T07:43:44;3.97;;;2.97;;
21814;SDS011;11069;48.988;8.450;2023-04-03T07:46:10;5.10;;;3.30;;
21814;SDS011;11069;48.988;8.450;2023-04-03T07:48:36;4.45;;;2.97;;
21814;SDS011;11069;48.988;8.450;2023-04-03T07:51:02;5.43;;;3.33;;
21814;SDS011;11069;48.988;8.450;2023-04-03T07:53:29;4.68;;;2.85;;
21814;SDS011;11069;48.988;8.450;2023-04-03T07:55:56;4.72;;;2.70;;
21814;SDS011;11069;48.988;8.450;2023-04-03T07:58:22;4.65;;;3.28;;
21814;SDS011;11069;48.988;8.450;2023-04-03T08:00:48;5.18;;;3.22;;
21814;SDS011;11069;48.988;8.450;2023-04-03T08:03:14;4.95;;;3.00;;
21814;SDS011;11069;48.988;8.450;2023-04-03T08:05:44;7.43;;;3.13;;
21814;SDS011;11069;48.988;8.450;2023-04-03T08:08:15;4.88;;;3.00;;
21814;SDS011;11069;48.988;8.450;2023-04-03T08:10:43;5.63;;;3.30;;
21814;SDS011;11069;48.988;8.450;2023-04-03T08:13:08;5.18;;;3.05;;
21814;SDS011;11069;48.988;8.450;2023-04-03T08:15:34;4.40;;;2.80;;
21814;SDS011;11069;48.988;8.450;2023-04-03T08:18:03;5.65;;;2.60;;
21814;SDS011;11069;48.988;8.450;2023-04-03T08:20:29;4.68;;;3.10;;
21814;SDS011;11069;48.988;8.450;2023-04-03T08:22:55;4.03;;;2.70;;
21814;SDS011;11069;48.988;8.450;2023-04-03T08:25:23;3.95;;;3.00;;
21814;SDS011;11069;48.988;8.450;2023-04-03T08:27:49;6.25;;;3.17;;
21814;SDS011;11069;48.988;8.450;2023-04-03T08:30:15;5.05;;;3.03;;
21814;SDS011;11069;48.988;8.450;2023-04-03T08:32:40;5.65;;;3.17;;
21814;SDS011;11069;48.988;8.450;2023-04-03T08:35:10;5.78;;;2.80;;
21814;SDS011;11069;48.988;8.450;2023-04-03T08:37:36;3.53;;;2.75;;
21814;SDS011;11069;48.988;8.450;2023-04-03T08:40:05;3.58;;;2.65;;
21814;SDS011;11069;48.988;8.450;2023-04-03T08:45:05;7.18;;;2.80;;
21814;SDS011;11069;48.988;8.450;2023-04-03T08:48:00;3.55;;;2.50;;
21814;SDS011;11069;48.988;8.450;2023-04-03T08:50:32;5.75;;;2.92;;
21814;SDS011;11069;48.988;8.450;2023-04-03T08:53:06;4.72;;;2.20;;
21814;SDS011;11069;48.988;8.450;2023-04-03T08:55:42;5.35;;;2.55;;
21814;SDS011;11069;48.988;8.450;2023-04-03T08:58:12;4.47;;;2.90;;
21814;SDS011;11069;48.988;8.450;2023-04-03T09:05:58;4.05;;;2.90;;
21814;SDS011;11069;48.988;8.450;2023-04-03T09:08:30;4.45;;;2.50;;
21814;SDS011;11069;48.988;8.450;2023-04-03T09:11:06;5.05;;;2.35;;
21814;SDS011;11069;48.988;8.450;2023-04-03T09:16:36;4.50;;;2.40;;
21814;SDS011;11069;48.988;8.450;2023-04-03T09:21:53;3.85;;;2.55;;
21814;SDS011;11069;48.988;8.450;2023-04-03T09:24:22;4.95;;;2.60;;
21814;SDS011;11069;48.988;8.450;2023-04-03T09:26:59;5.95;;;3.00;;
21814;SDS011;11069;48.988;8.450;2023-04-03T09:29:32;4.30;;;2.40;;
21814;SDS011;11069;48.988;8.450;2023-04-03T09:32:12;5.18;;;2.60;;
21814;SDS011;11069;48.988;8.450;2023-04-03T09:34:52;2.88;;;2.13;;
21814;SDS011;11069;48.988;8.450;2023-04-03T09:37:33;3.47;;;2.35;;
21814;SDS011;11069;48.988;8.450;2023-04-03T09:40:04;5.97;;;2.67;;
21814;SDS011;11069;48.988;8.450;2023-04-03T09:42:31;5.60;;;2.00;;
21814;SDS011;11069;48.988;8.450;2023-04-03T09:44:58;3.58;;;2.10;;
21814;SDS011;11069;48.988;8.450;2023-04-03T09:52:43;3.80;;;2.15;;
21814;SDS011;11069;48.988;8.450;2023-04-03T09:57:38;3.55;;;2.22;;
21814;SDS011;11069;48.988;8.450;2023-04-03T10:00:05;4.13;;;2.25;;
21814;SDS011;11069;48.988;8.450;2023-04-03T10:02:44;4.22;;;2.20;;
21814;SDS011;11069;48.988;8.450;2023-04-03T10:08:23;3.28;;;1.70;;
21814;SDS011;11069;48.988;8.450;2023-04-03T10:13:35;3.83;;;2.25;;
21814;SDS011;11069;48.988;8.450;2023-04-03T10:21:32;2.60;;;1.83;;
21814;SDS011;11069;48.988;8.450;2023-04-03T10:27:40;3.03;;;1.75;;
21814;SDS011;11069;48.988;8.450;2023-04-03T10:33:19;3.43;;;1.93;;
21814;SDS011;11069;48.988;8.450;2023-04-03T10:41:56;3.58;;;2.15;;
21814;SDS011;11069;48.988;8.450;2023-04-03T10:47:05;3.17;;;1.90;;
21814;SDS011;11069;48.988;8.450;2023-04-03T10:55:20;1.85;;;1.60;;
21814;SDS011;11069;48.988;8.450;2023-04-03T10:57:49;2.83;;;1.63;;
21814;SDS011;11069;48.988;8.450;2023-04-03T11:00:19;3.10;;;1.60;;
21814;SDS011;11069;48.988;8.450;2023-04-03T11:03:01;4.43;;;1.95;;
21814;SDS011;11069;48.988;8.450;2023-04-03T11:05:52;3.25;;;1.83;;
21814;SDS011;11069;48.988;8.450;2023-04-03T11:08:29;2.28;;;1.60;;
21814;SDS011;11069;48.988;8.450;2023-04-03T11:11:06;3.50;;;1.80;;
21814;SDS011;11069;48.988;8.450;2023-04-03T11:16:07;3.15;;;1.70;;
21814;SDS011;11069;48.988;8.450;2023-04-03T11:18:40;2.58;;;1.90;;
21814;SDS011;11069;48.988;8.450;2023-04-03T11:23:47;3.53;;;2.20;;
21814;SDS011;11069;48.988;8.450;2023-04-03T11:26:14;2.70;;;1.80;;
21814;SDS011;11069;48.988;8.450;2023-04-03T11:28:46;2.83;;;1.77;;
21814;SDS011;11069;48.988;8.450;2023-04-03T11:31:45;3.50;;;2.05;;
21814;SDS011;11069;48.988;8.450;2023-04-03T11:36:59;2.88;;;1.80;;
21814;SDS011;11069;48.988;8.450;2023-04-03T11:39:28;4.43;;;1.80;;
21814;SDS011;11069;48.988;8.450;2023-04-03T11:47:56;3.83;;;2.10;;
21814;SDS011;11069;48.988;8.450;2023-04-03T11:58:02;3.90;;;2.10;;
21814;SDS011;11069;48.988;8.450;2023-04-03T12:24:28;2.75;;;1.90;;
21814;SDS011;11069;48.988;8.450;2023-04-03T12:29:44;3.95;;;2.13;;
21814;SDS011;11069;48.988;8.450;2023-04-03T12:32:35;3.10;;;2.08;;
21814;SDS011;11069;48.988;8.450;2023-04-03T12:48:53;5.22;;;2.25;;
21814;SDS011;11069;48.988;8.450;2023-04-03T12:59:40;3.78;;;2.25;;
21814;SDS011;11069;48.988;8.450;2023-04-03T13:04:50;5.35;;;2.22;;
21814;SDS011;11069;48.988;8.450;2023-04-03T13:07:24;3.25;;;2.00;;
21814;SDS011;11069;48.988;8.450;2023-04-03T13:09:55;4.28;;;2.13;;
21814;SDS011;11069;48.988;8.450;2023-04-03T13:12:26;4.95;;;2.25;;
21814;SDS011;11069;48.988;8.450;2023-04-03T13:14:59;4.07;;;2.20;;
21814;SDS011;11069;48.988;8.450;2023-04-03T13:17:26;5.05;;;2.30;;
21814;SDS011;11069;48.988;8.450;2023-04-03T13:19:52;3.20;;;1.88;;
21814;SDS011;11069;48.988;8.450;2023-04-03T13:24:47;3.25;;;1.92;;
21814;SDS011;11069;48.988;8.450;2023-04-03T13:27:15;5.38;;;2.30;;
21814;SDS011;11069;48.988;8.450;2023-04-03T13:29:41;4.85;;;2.28;;
21814;SDS011;11069;48.988;8.450;2023-04-03T13:32:13;5.50;;;2.13;;
21814;SDS011;11069;48.988;8.450;2023-04-03T13:34:48;3.35;;;2.30;;
21814;SDS011;11069;48.988;8.450;2023-04-03T13:37:52;4.13;;;2.30;;
21814;SDS011;11069;48.988;8.450;2023-04-03T13:40:21;4.40;;;2.40;;
21814;SDS011;11069;48.988;8.450;2023-04-03T13:42:48;4.28;;;2.30;;
21814;SDS011;11069;48.988;8.450;2023-04-03T13:45:32;2.47;;;1.90;;
21814;SDS011;11069;48.988;8.450;2023-04-03T13:48:18;3.35;;;2.10;;
21814;SDS011;11069;48.988;8.450;2023-04-03T13:50:51;2.85;;;2.10;;
21814;SDS011;11069;48.988;8.450;2023-04-03T13:53:26;3.88;;;2.33;;
21814;SDS011;11069;48.988;8.450;2023-04-03T13:58:22;3.97;;;2.40;;
21814;SDS011;11069;48.988;8.450;2023-04-03T14:00:54;3.47;;;2.20;;
21814;SDS011;11069;48.988;8.450;2023-04-03T14:06:14;2.85;;;2.10;;
21814;SDS011;11069;48.988;8.450;2023-04-03T14:08:41;4.13;;;2.22;;
21814;SDS011;11069;48.988;8.450;2023-04-03T14:11:15;4.93;;;2.40;;
21814;SDS011;11069;48.988;8.450;2023-04-03T14:13:43;3.75;;;2.38;;
21814;SDS011;11069;48.988;8.450;2023-04-03T14:16:14;3.83;;;2.10;;
21814;SDS011;11069;48.988;8.450;2023-04-03T14:18:41;4.35;;;2.40;;
21814;SDS011;11069;48.988;8.450;2023-04-03T14:21:09;3.40;;;2.25;;
21814;SDS011;11069;48.988;8.450;2023-04-03T14:23:36;4.30;;;2.25;;
21814;SDS011;11069;48.988;8.450;2023-04-03T14:26:02;3.20;;;2.22;;
21814;SDS011;11069;48.988;8.450;2023-04-03T14:28:31;2.33;;;2.00;;
21814;SDS011;11069;48.988;8.450;2023-04-03T14:30:57;4.82;;;2.20;;
21814;SDS011;11069;48.988;8.450;2023-04-03T14:33:23;4.90;;;2.30;;
21814;SDS011;11069;48.988;8.450;2023-04-03T14:35:48;4.18;;;2.08;;
21814;SDS011;11069;48.988;8.450;2023-04-03T14:38:32;2.63;;;1.90;;
21814;SDS011;11069;48.988;8.450;2023-04-03T14:40:58;4.85;;;2.20;;
21814;SDS011;11069;48.988;8.450;2023-04-03T14:43:24;4.15;;;2.20;;
21814;SDS011;11069;48.988;8.450;2023-04-03T14:45:50;4.05;;;2.35;;
21814;SDS011;11069;48.988;8.450;2023-04-03T14:48:20;2.83;;;2.10;;
21814;SDS011;11069;48.988;8.450;2023-04-03T14:50:48;3.65;;;2.45;;
21814;SDS011;11069;48.988;8.450;2023-04-03T14:53:15;4.65;;;2.75;;
21814;SDS011;11069;48.988;8.450;2023-04-03T14:55:42;4.70;;;2.00;;
21814;SDS011;11069;48.988;8.450;2023-04-03T14:58:13;3.85;;;2.10;;
21814;SDS011;11069;48.988;8.450;2023-04-03T15:00:40;3.90;;;2.22;;
21814;SDS011;11069;48.988;8.450;2023-04-03T15:03:09;6.70;;;2.45;;
21814;SDS011;11069;48.988;8.450;2023-04-03T15:05:46;3.17;;;1.90;;
21814;SDS011;11069;48.988;8.450;2023-04-03T15:08:20;3.30;;;2.15;;
21814;SDS011;11069;48.988;8.450;2023-04-03T15:10:56;3.17;;;2.20;;
21814;SDS011;11069;48.988;8.450;2023-04-03T15:13:22;3.17;;;1.83;;
21814;SDS011;11069;48.988;8.450;2023-04-03T15:15:49;3.00;;;1.88;;
21814;SDS011;11069;48.988;8.450;2023-04-03T15:18:20;4.30;;;2.00;;
21814;SDS011;11069;48.988;8.450;2023-04-03T15:20:48;3.25;;;2.47;;
21814;SDS011;11069;48.988;8.450;2023-04-03T15:23:14;2.45;;;2.17;;
21814;SDS011;11069;48.988;8.450;2023-04-03T15:25:47;4.60;;;2.58;;
21814;SDS011;11069;48.988;8.450;2023-04-03T15:28:17;3.03;;;2.10;;
21814;SDS011;11069;48.988;8.450;2023-04-03T15:30:47;4.35;;;2.10;;
21814;SDS011;11069;48.988;8.450;2023-04-03T15:33:12;4.28;;;2.15;;
21814;SDS011;11069;48.988;8.450;2023-04-03T15:35:38;4.22;;;2.10;;
21814;SDS011;11069;48.988;8.450;2023-04-03T15:38:04;3.60;;;1.92;;
21814;SDS011;11069;48.988;8.450;2023-04-03T15:40:38;3.63;;;2.05;;
21814;SDS011;11069;48.988;8.450;2023-04-03T15:43:05;4.53;;;2.28;;
21814;SDS011;11069;48.988;8.450;2023-04-03T15:45:32;4.45;;;2.20;;
21814;SDS011;11069;48.988;8.450;2023-04-03T15:48:00;5.55;;;2.33;;
21814;SDS011;11069;48.988;8.450;2023-04-03T15:50:26;9.63;;;2.00;;
21814;SDS011;11069;48.988;8.450;2023-04-03T15:52:52;4.15;;;2.10;;
21814;SDS011;11069;48.988;8.450;2023-04-03T15:55:21;3.53;;;2.05;;
21814;SDS011;11069;48.988;8.450;2023-04-03T15:57:48;4.65;;;2.42;;
21814;SDS011;11069;48.988;8.450;2023-04-03T16:00:13;3.90;;;2.30;;
21814;SDS011;11069;48.988;8.450;2023-04-03T16:02:40;4.22;;;2.10;;
21814;SDS011;11069;48.988;8.450;2023-04-03T16:05:07;4.90;;;2.10;;
21814;SDS011;11069;48.988;8.450;2023-04-03T16:07:33;3.15;;;2.33;;
21814;SDS011;11069;48.988;8.450;2023-04-03T16:09:59;2.58;;;2.33;;
21814;SDS011;11069;48.988;8.450;2023-04-03T16:12:25;4.55;;;2.70;;
21814;SDS011;11069;48.988;8.450;2023-04-03T16:14:50;4.28;;;2.90;;
21814;SDS011;11069;48.988;8.450;2023-04-03T16:17:16;3.67;;;2.22;;
21814;SDS011;11069;48.988;8.450;2023-04-03T16:19:42;3.13;;;2.17;;
21814;SDS011;11069;48.988;8.450;2023-04-03T16:22:08;3.47;;;2.50;;
21814;SDS011;11069;48.988;8.450;2023-04-03T16:24:33;7.07;;;2.40;;
21814;SDS011;11069;48.988;8.450;2023-04-03T16:27:00;3.92;;;2.55;;
21814;SDS011;11069;48.988;8.450;2023-04-03T16:29:26;5.13;;;2.22;;
21814;SDS011;11069;48.988;8.450;2023-04-03T16:31:51;4.35;;;2.47;;
21814;SDS011;11069;48.988;8.450;2023-04-03T16:34:17;4.30;;;2.53;;
21814;SDS011;11069;48.988;8.450;2023-04-03T16:36:43;5.07;;;2.70;;
21814;SDS011;11069;48.988;8.450;2023-04-03T16:39:08;4.25;;;2.38;;
21814;SDS011;11069;48.988;8.450;2023-04-03T16:41:37;4.53;;;2.30;;
21814;SDS011;11069;48.988;8.450;2023-04-03T16:44:02;5.15;;;2.50;;
21814;SDS011;11069;48.988;8.450;2023-04-03T16:46:28;3.63;;;2.10;;
21814;SDS011;11069;48.988;8.450;2023-04-03T16:48:54;7.70;;;2.58;;
21814;SDS011;11069;48.988;8.450;2023-04-03T16:51:19;3.88;;;2.50;;
21814;SDS011;11069;48.988;8.450;2023-04-03T16:53:54;2.53;;;2.08;;
21814;SDS011;11069;48.988;8.450;2023-04-03T16:56:20;3.17;;;2.17;;
21814;SDS011;11069;48.988;8.450;2023-04-03T16:58:47;3.47;;;2.38;;
21814;SDS011;11069;48.988;8.450;2023-04-03T17:01:16;3.97;;;2.67;;
21814;SDS011;11069;48.988;8.450;2023-04-03T17:03:43;3.80;;;2.55;;
21814;SDS011;11069;48.988;8.450;2023-04-03T17:06:10;3.40;;;2.33;;
21814;SDS011;11069;48.988;8.450;2023-04-03T17:08:45;4.95;;;2.35;;
21814;SDS011;11069;48.988;8.450;2023-04-03T17:11:13;4.80;;;2.20;;
21814;SDS011;11069;48.988;8.450;2023-04-03T17:13:39;4.35;;;2.42;;
21814;SDS011;11069;48.988;8.450;2023-04-03T17:16:12;3.83;;;2.38;;
21814;SDS011;11069;48.988;8.450;2023-04-03T17:18:39;4.20;;;2.22;;
21814;SDS011;11069;48.988;8.450;2023-04-03T17:21:05;2.70;;;2.15;;